sensor_id;sensor_type;location;lat;lon;timestamp;pressure;altitude;pressure_sealevel;temperature;humidity
49515;BME280;35415;47.870;16.058;2023-05-02T00:00:55;97272.97;;;10.76;86.17
49515;BME280;35415;47.870;16.058;2023-05-02T00:03:25;97274.28;;;10.74;86.35
49515;BME280;35415;47.870;16.058;2023-05-02T00:05:54;97280.19;;;10.71;86.99
49515;BME280;35415;47.870;16.058;2023-05-02T00:08:21;97280.47;;;10.69;87.01
49515;BME280;35415;47.870;16.058;2023-05-02T00:10:48;97279.38;;;10.70;86.88
49515;BME280;35415;47.870;16.058;2023-05-02T00:13:15;97279.66;;;10.64;87.85
49515;BME280;35415;47.870;16.058;2023-05-02T00:15:42;97276.16;;;10.63;87.86
49515;BME280;35415;47.870;16.058;2023-05-02T00:18:10;97274.81;;;10.61;88.18
49515;BME280;35415;47.870;16.058;2023-05-02T00:20:38;97271.06;;;10.62;87.58
49515;BME280;35415;47.870;16.058;2023-05-02T00:23:07;97258.94;;;10.54;87.57
49515;BME280;35415;47.870;16.058;2023-05-02T00:25:34;97275.63;;;10.61;87.88
49515;BME280;35415;47.870;16.058;2023-05-02T00:28:02;97271.88;;;10.62;87.55
49515;BME280;35415;47.870;16.058;2023-05-02T00:30:29;97266.22;;;10.59;88.17
49515;BME280;35415;47.870;16.058;2023-05-02T00:32:56;97270.75;;;10.58;88.20
49515;BME280;35415;47.870;16.058;2023-05-02T00:35:23;97278.28;;;10.56;88.42
49515;BME280;35415;47.870;16.058;2023-05-02T00:37:50;97269.16;;;10.57;87.98
49515;BME280;35415;47.870;16.058;2023-05-02T00:40:19;97269.16;;;10.52;88.22
49515;BME280;35415;47.870;16.058;2023-05-02T00:42:46;97264.03;;;10.50;88.54
49515;BME280;35415;47.870;16.058;2023-05-02T00:45:13;97265.91;;;10.50;88.77
49515;BME280;35415;47.870;16.058;2023-05-02T00:47:40;97267.53;;;10.46;89.14
49515;BME280;35415;47.870;16.058;2023-05-02T00:50:08;97267.53;;;10.46;89.12
49515;BME280;35415;47.870;16.058;2023-05-02T00:52:36;97267.00;;;10.44;89.21
49515;BME280;35415;47.870;16.058;2023-05-02T00:55:05;97272.91;;;10.46;89.07
49515;BME280;35415;47.870;16.058;2023-05-02T00:57:34;97268.63;;;10.45;89.26
49515;BME280;35415;47.870;16.058;2023-05-02T01:00:01;97273.19;;;10.44;89.59
49515;BME280;35415;47.870;16.058;2023-05-02T01:02:37;97288.25;;;10.45;88.67
49515;BME280;35415;47.870;16.058;2023-05-02T01:05:13;97280.44;;;10.44;89.11
49515;BME280;35415;47.870;16.058;2023-05-02T01:08:08;97286.59;;;10.39;88.91
49515;BME280;35415;47.870;16.058;2023-05-02T01:10:45;97284.72;;;10.35;89.14
49515;BME280;35415;47.870;16.058;2023-05-02T01:13:20;97288.22;;;10.35;89.14
49515;BME280;35415;47.870;16.058;2023-05-02T01:15:50;97284.72;;;10.30;89.66
49515;BME280;35415;47.870;16.058;2023-05-02T01:18:21;97284.97;;;10.28;89.71
49515;BME280;35415;47.870;16.058;2023-05-02T01:20:52;97284.13;;;10.22;90.01
49515;BME280;35415;47.870;16.058;2023-05-02T01:23:27;97294.88;;;10.22;90.38
49515;BME280;35415;47.870;16.058;2023-05-02T01:26:05;97287.84;;;10.16;90.04
49515;BME280;35415;47.870;16.058;2023-05-02T01:28:59;97291.09;;;10.18;90.01
49515;BME280;35415;47.870;16.058;2023-05-02T01:31:28;97293.22;;;10.16;90.23
49515;BME280;35415;47.870;16.058;2023-05-02T01:33:57;97263.06;;;9.99;90.36
49515;BME280;35415;47.870;16.058;2023-05-02T01:36:28;97293.75;;;10.13;90.80
49515;BME280;35415;47.870;16.058;2023-05-02T01:38:57;97282.16;;;10.03;91.02
49515;BME280;35415;47.870;16.058;2023-05-02T01:41:26;97296.44;;;10.08;91.29
49515;BME280;35415;47.870;16.058;2023-05-02T01:43:56;97292.63;;;10.04;91.48
49515;BME280;35415;47.870;16.058;2023-05-02T01:46:26;97297.75;;;10.06;91.69
49515;BME280;35415;47.870;16.058;2023-05-02T01:48:55;97293.44;;;10.05;92.28
49515;BME280;35415;47.870;16.058;2023-05-02T01:51:29;97295.34;;;10.04;92.38
49515;BME280;35415;47.870;16.058;2023-05-02T01:53:59;97299.91;;;10.04;92.51
49515;BME280;35415;47.870;16.058;2023-05-02T01:56:30;97291.84;;;10.04;92.25
49515;BME280;35415;47.870;16.058;2023-05-02T01:58:59;97299.34;;;10.02;92.72
49515;BME280;35415;47.870;16.058;2023-05-02T02:01:29;97296.94;;;10.00;93.07
49515;BME280;35415;47.870;16.058;2023-05-02T02:03:59;97292.06;;;9.92;93.00
49515;BME280;35415;47.870;16.058;2023-05-02T02:06:27;97303.38;;;9.94;93.41
49515;BME280;35415;47.870;16.058;2023-05-02T02:08:54;97291.50;;;9.90;93.55
49515;BME280;35415;47.870;16.058;2023-05-02T02:11:25;97286.91;;;9.80;93.78
49515;BME280;35415;47.870;16.058;2023-05-02T02:13:59;97300.09;;;9.87;93.62
49515;BME280;35415;47.870;16.058;2023-05-02T02:16:31;97309.22;;;9.86;94.17
49515;BME280;35415;47.870;16.058;2023-05-02T02:19:04;97310.28;;;9.85;94.23
49515;BME280;35415;47.870;16.058;2023-05-02T02:21:33;97295.97;;;9.69;94.97
49515;BME280;35415;47.870;16.058;2023-05-02T02:24:04;97304.09;;;9.74;95.13
49515;BME280;35415;47.870;16.058;2023-05-02T02:26:33;97304.09;;;9.79;94.88
49515;BME280;35415;47.870;16.058;2023-05-02T02:29:01;97301.13;;;9.76;95.61
49515;BME280;35415;47.870;16.058;2023-05-02T02:31:34;97310.50;;;9.73;95.44
49515;BME280;35415;47.870;16.058;2023-05-02T02:34:04;97311.81;;;9.71;96.09
49515;BME280;35415;47.870;16.058;2023-05-02T02:36:34;97311.03;;;9.70;96.30
49515;BME280;35415;47.870;16.058;2023-05-02T02:39:11;97312.09;;;9.69;96.41
49515;BME280;35415;47.870;16.058;2023-05-02T02:41:43;97309.38;;;9.64;97.08
49515;BME280;35415;47.870;16.058;2023-05-02T02:44:27;97316.91;;;9.67;96.72
49515;BME280;35415;47.870;16.058;2023-05-02T02:47:05;97323.91;;;9.68;96.77
49515;BME280;35415;47.870;16.058;2023-05-02T02:49:42;97308.59;;;9.63;96.81
49515;BME280;35415;47.870;16.058;2023-05-02T02:52:17;97308.56;;;9.58;96.85
49515;BME280;35415;47.870;16.058;2023-05-02T02:54:51;97322.03;;;9.69;97.14
49515;BME280;35415;47.870;16.058;2023-05-02T02:57:25;97326.06;;;9.71;96.99
49515;BME280;35415;47.870;16.058;2023-05-02T03:00:00;97325.78;;;9.68;97.45
49515;BME280;35415;47.870;16.058;2023-05-02T03:02:31;97327.66;;;9.67;97.64
49515;BME280;35415;47.870;16.058;2023-05-02T03:05:00;97338.94;;;9.69;97.26
49515;BME280;35415;47.870;16.058;2023-05-02T03:07:29;97328.16;;;9.59;97.94
49515;BME280;35415;47.870;16.058;2023-05-02T03:09:57;97340.03;;;9.68;97.84
49515;BME280;35415;47.870;16.058;2023-05-02T03:12:24;97330.34;;;9.67;97.86
49515;BME280;35415;47.870;16.058;2023-05-02T03:14:51;97339.75;;;9.70;97.57
49515;BME280;35415;47.870;16.058;2023-05-02T03:17:18;97337.06;;;9.70;97.70
49515;BME280;35415;47.870;16.058;2023-05-02T03:19:47;97341.91;;;9.68;97.59
49515;BME280;35415;47.870;16.058;2023-05-02T03:22:14;97338.16;;;9.69;97.77
49515;BME280;35415;47.870;16.058;2023-05-02T03:24:41;97343.25;;;9.70;97.10
49515;BME280;35415;47.870;16.058;2023-05-02T03:27:08;97346.47;;;9.67;97.72
49515;BME280;35415;47.870;16.058;2023-05-02T03:29:35;97351.31;;;9.70;97.58
49515;BME280;35415;47.870;16.058;2023-05-02T03:32:02;97340.28;;;9.67;97.80
49515;BME280;35415;47.870;16.058;2023-05-02T03:34:30;97339.19;;;9.62;97.96
49515;BME280;35415;47.870;16.058;2023-05-02T03:36:58;97356.63;;;9.60;98.21
49515;BME280;35415;47.870;16.058;2023-05-02T03:39:25;97344.53;;;9.57;98.18
49515;BME280;35415;47.870;16.058;2023-05-02T03:41:52;97359.59;;;9.58;98.34
49515;BME280;35415;47.870;16.058;2023-05-02T03:44:19;97351.53;;;9.58;98.66
49515;BME280;35415;47.870;16.058;2023-05-02T03:46:46;97351.22;;;9.55;98.77
49515;BME280;35415;47.870;16.058;2023-05-02T03:49:14;97344.72;;;9.46;98.66
49515;BME280;35415;47.870;16.058;2023-05-02T03:51:41;97358.72;;;9.53;98.87
49515;BME280;35415;47.870;16.058;2023-05-02T03:54:09;97360.03;;;9.50;99.14
49515;BME280;35415;47.870;16.058;2023-05-02T03:56:36;97376.41;;;9.49;99.31
49515;BME280;35415;47.870;16.058;2023-05-02T03:59:03;97365.34;;;9.40;99.74
49515;BME280;35415;47.870;16.058;2023-05-02T04:01:30;97370.75;;;9.45;100.00
49515;BME280;35415;47.870;16.058;2023-05-02T04:03:57;97374.28;;;9.51;100.00
49515;BME280;35415;47.870;16.058;2023-05-02T04:06:25;97380.72;;;9.50;100.00
49515;BME280;35415;47.870;16.058;2023-05-02T04:08:52;97386.09;;;9.50;100.00
49515;BME280;35415;47.870;16.058;2023-05-02T04:11:21;97386.91;;;9.50;100.00
49515;BME280;35415;47.870;16.058;2023-05-02T04:13:48;97378.00;;;9.45;100.00
49515;BME280;35415;47.870;16.058;2023-05-02T04:16:15;97390.94;;;9.53;100.00
49515;BME280;35415;47.870;16.058;2023-05-02T04:18:42;97397.94;;;9.54;100.00
49515;BME280;35415;47.870;16.058;2023-05-02T04:21:09;97393.91;;;9.56;100.00
49515;BME280;35415;47.870;16.058;2023-05-02T04:23:36;97365.91;;;9.42;100.00
49515;BME280;35415;47.870;16.058;2023-05-02T04:26:03;97380.50;;;9.56;100.00
49515;BME280;35415;47.870;16.058;2023-05-02T04:28:31;97398.53;;;9.61;100.00
49515;BME280;35415;47.870;16.058;2023-05-02T04:31:01;97384.56;;;9.59;100.00
49515;BME280;35415;47.870;16.058;2023-05-02T04:33:29;97396.69;;;9.67;100.00
49515;BME280;35415;47.870;16.058;2023-05-02T04:35:56;97386.75;;;9.67;100.00
49515;BME280;35415;47.870;16.058;2023-05-02T04:38:26;97396.97;;;9.70;100.00
49515;BME280;35415;47.870;16.058;2023-05-02T04:40:53;97396.22;;;9.75;100.00
49515;BME280;35415;47.870;16.058;2023-05-02T04:43:21;97390.53;;;9.71;100.00
49515;BME280;35415;47.870;16.058;2023-05-02T04:45:49;97399.47;;;9.82;100.00
49515;BME280;35415;47.870;16.058;2023-05-02T04:48:16;97404.59;;;9.83;100.00
49515;BME280;35415;47.870;16.058;2023-05-02T04:50:44;97406.22;;;9.89;100.00
49515;BME280;35415;47.870;16.058;2023-05-02T04:53:11;97406.81;;;9.91;100.00
49515;BME280;35415;47.870;16.058;2023-05-02T04:55:38;97401.44;;;9.97;100.00
49515;BME280;35415;47.870;16.058;2023-05-02T04:58:07;97399.84;;;10.01;100.00
49515;BME280;35415;47.870;16.058;2023-05-02T05:00:34;97392.59;;;9.96;100.00
49515;BME280;35415;47.870;16.058;2023-05-02T05:03:02;97396.63;;;9.99;100.00
49515;BME280;35415;47.870;16.058;2023-05-02T05:05:30;97406.38;;;10.10;100.00
49515;BME280;35415;47.870;16.058;2023-05-02T05:07:57;97402.59;;;10.11;99.71
49515;BME280;35415;47.870;16.058;2023-05-02T05:10:24;97415.81;;;10.17;99.74
49515;BME280;35415;47.870;16.058;2023-05-02T05:12:51;97414.22;;;10.21;99.58
49515;BME280;35415;47.870;16.058;2023-05-02T05:15:18;97423.66;;;10.24;99.62
49515;BME280;35415;47.870;16.058;2023-05-02T05:17:47;97417.22;;;10.25;99.65
49515;BME280;35415;47.870;16.058;2023-05-02T05:20:15;97426.94;;;10.36;99.42
49515;BME280;35415;47.870;16.058;2023-05-02T05:22:42;97419.97;;;10.40;99.40
49515;BME280;35415;47.870;16.058;2023-05-02T05:25:10;97422.97;;;10.44;99.21
49515;BME280;35415;47.870;16.058;2023-05-02T05:27:37;97416.25;;;10.51;99.01
49515;BME280;35415;47.870;16.058;2023-05-02T05:30:05;97416.84;;;10.59;99.10
49515;BME280;35415;47.870;16.058;2023-05-02T05:32:33;97418.75;;;10.68;99.07
49515;BME280;35415;47.870;16.058;2023-05-02T05:35:00;97420.94;;;10.76;98.69
49515;BME280;35415;47.870;16.058;2023-05-02T05:37:29;97409.63;;;10.79;98.59
49515;BME280;35415;47.870;16.058;2023-05-02T05:39:56;97421.78;;;10.97;98.34
49515;BME280;35415;47.870;16.058;2023-05-02T05:42:23;97428.78;;;11.08;97.75
49515;BME280;35415;47.870;16.058;2023-05-02T05:44:50;97419.41;;;11.11;97.33
49515;BME280;35415;47.870;16.058;2023-05-02T05:47:20;97422.38;;;11.30;96.67
49515;BME280;35415;47.870;16.058;2023-05-02T05:49:51;97415.38;;;11.34;95.96
49515;BME280;35415;47.870;16.058;2023-05-02T05:52:19;97412.97;;;11.42;95.26
49515;BME280;35415;47.870;16.058;2023-05-02T05:54:47;97413.47;;;11.55;94.54
49515;BME280;35415;47.870;16.058;2023-05-02T05:57:18;97445.59;;;11.82;93.24
49515;BME280;35415;47.870;16.058;2023-05-02T05:59:45;97443.16;;;11.95;92.76
49515;BME280;35415;47.870;16.058;2023-05-02T06:02:12;97416.47;;;11.94;92.08
49515;BME280;35415;47.870;16.058;2023-05-02T06:04:39;97435.28;;;12.19;91.49
49515;BME280;35415;47.870;16.058;2023-05-02T06:07:06;97437.44;;;12.27;90.54
49515;BME280;35415;47.870;16.058;2023-05-02T06:09:33;97437.63;;;12.41;89.85
49515;BME280;35415;47.870;16.058;2023-05-02T06:12:02;97435.72;;;12.52;89.44
49515;BME280;35415;47.870;16.058;2023-05-02T06:14:29;97430.84;;;12.54;88.42
49515;BME280;35415;47.870;16.058;2023-05-02T06:16:58;97437.31;;;12.63;88.09
49515;BME280;35415;47.870;16.058;2023-05-02T06:19:25;97435.94;;;12.65;87.37
49515;BME280;35415;47.870;16.058;2023-05-02T06:21:52;97454.47;;;12.87;86.82
49515;BME280;35415;47.870;16.058;2023-05-02T06:24:19;97458.50;;;12.95;85.96
49515;BME280;35415;47.870;16.058;2023-05-02T06:26:46;97456.28;;;13.02;85.40
49515;BME280;35415;47.870;16.058;2023-05-02T06:29:14;97454.88;;;13.10;85.06
49515;BME280;35415;47.870;16.058;2023-05-02T06:31:41;97455.72;;;13.10;85.36
49515;BME280;35415;47.870;16.058;2023-05-02T06:34:08;97456.75;;;13.14;84.91
49515;BME280;35415;47.870;16.058;2023-05-02T06:36:35;97464.53;;;13.26;84.27
49515;BME280;35415;47.870;16.058;2023-05-02T06:39:02;97466.41;;;13.31;84.18
49515;BME280;35415;47.870;16.058;2023-05-02T06:41:29;97462.91;;;13.30;84.21
49515;BME280;35415;47.870;16.058;2023-05-02T06:43:56;97475.53;;;13.40;83.86
49515;BME280;35415;47.870;16.058;2023-05-02T06:46:27;97474.72;;;13.44;83.93
49515;BME280;35415;47.870;16.058;2023-05-02T06:48:55;97471.44;;;13.47;83.80
49515;BME280;35415;47.870;16.058;2023-05-02T06:51:22;97474.66;;;13.49;83.97
49515;BME280;35415;47.870;16.058;2023-05-02T06:53:49;97480.59;;;13.51;84.41
49515;BME280;35415;47.870;16.058;2023-05-02T06:56:16;97484.91;;;13.52;84.50
49515;BME280;35415;47.870;16.058;2023-05-02T06:58:43;97483.25;;;13.57;84.32
49515;BME280;35415;47.870;16.058;2023-05-02T07:01:10;97483.53;;;13.55;84.62
49515;BME280;35415;47.870;16.058;2023-05-02T07:03:39;97479.97;;;13.60;84.72
49515;BME280;35415;47.870;16.058;2023-05-02T07:06:07;97494.34;;;13.55;85.59
49515;BME280;35415;47.870;16.058;2023-05-02T07:08:34;97484.09;;;13.52;85.19
49515;BME280;35415;47.870;16.058;2023-05-02T07:11:02;97473.91;;;13.44;85.80
49515;BME280;35415;47.870;16.058;2023-05-02T07:13:28;97489.19;;;13.59;86.33
49515;BME280;35415;47.870;16.058;2023-05-02T07:15:55;97494.03;;;13.62;86.65
49515;BME280;35415;47.870;16.058;2023-05-02T07:18:26;97495.13;;;13.61;86.86
49515;BME280;35415;47.870;16.058;2023-05-02T07:20:55;97507.56;;;13.62;87.98
49515;BME280;35415;47.870;16.058;2023-05-02T07:23:22;97504.84;;;13.62;87.79
49515;BME280;35415;47.870;16.058;2023-05-02T07:25:49;97499.16;;;13.63;88.29
49515;BME280;35415;47.870;16.058;2023-05-02T07:28:17;97504.06;;;13.61;87.64
49515;BME280;35415;47.870;16.058;2023-05-02T07:30:44;97507.28;;;13.63;88.56
49515;BME280;35415;47.870;16.058;2023-05-02T07:33:11;97486.84;;;13.47;88.40
49515;BME280;35415;47.870;16.058;2023-05-02T07:35:37;97518.31;;;13.67;88.16
49515;BME280;35415;47.870;16.058;2023-05-02T07:38:06;97524.25;;;13.69;88.64
49515;BME280;35415;47.870;16.058;2023-05-02T07:40:33;97520.19;;;13.71;88.40
49515;BME280;35415;47.870;16.058;2023-05-02T07:43:01;97516.38;;;13.72;88.62
49515;BME280;35415;47.870;16.058;2023-05-02T07:45:28;97531.22;;;13.75;87.81
49515;BME280;35415;47.870;16.058;2023-05-02T07:47:55;97527.44;;;13.76;88.41
49515;BME280;35415;47.870;16.058;2023-05-02T07:50:22;97526.38;;;13.72;87.62
49515;BME280;35415;47.870;16.058;2023-05-02T07:52:50;97512.91;;;13.67;88.05
49515;BME280;35415;47.870;16.058;2023-05-02T07:55:19;97534.72;;;13.80;87.80
49515;BME280;35415;47.870;16.058;2023-05-02T07:57:46;97532.03;;;13.80;87.42
49515;BME280;35415;47.870;16.058;2023-05-02T08:00:14;97539.84;;;13.82;87.60
49515;BME280;35415;47.870;16.058;2023-05-02T08:02:41;97514.28;;;13.64;87.72
49515;BME280;35415;47.870;16.058;2023-05-02T08:05:08;97534.19;;;13.78;87.48
49515;BME280;35415;47.870;16.058;2023-05-02T08:07:35;97519.88;;;13.78;87.62
49515;BME280;35415;47.870;16.058;2023-05-02T08:10:03;97531.16;;;13.85;87.46
49515;BME280;35415;47.870;16.058;2023-05-02T08:12:31;97521.97;;;13.86;86.94
49515;BME280;35415;47.870;16.058;2023-05-02T08:15:03;97527.91;;;13.88;86.79
49515;BME280;35415;47.870;16.058;2023-05-02T08:17:30;97545.16;;;13.97;86.96
49515;BME280;35415;47.870;16.058;2023-05-02T08:19:57;97537.03;;;13.97;86.79
49515;BME280;35415;47.870;16.058;2023-05-02T08:22:24;97538.38;;;14.00;87.34
49515;BME280;35415;47.870;16.058;2023-05-02T08:24:51;97538.88;;;14.02;87.13
49515;BME280;35415;47.870;16.058;2023-05-02T08:27:18;97542.91;;;14.04;86.69
49515;BME280;35415;47.870;16.058;2023-05-02T08:29:46;97540.16;;;14.09;86.68
49515;BME280;35415;47.870;16.058;2023-05-02T08:32:13;97534.22;;;14.07;86.71
49515;BME280;35415;47.870;16.058;2023-05-02T08:34:40;97552.84;;;14.14;86.28
49515;BME280;35415;47.870;16.058;2023-05-02T08:37:07;97539.03;;;14.15;86.22
49515;BME280;35415;47.870;16.058;2023-05-02T08:39:34;97542.56;;;14.16;85.99
49515;BME280;35415;47.870;16.058;2023-05-02T08:42:05;97546.88;;;14.17;86.44
49515;BME280;35415;47.870;16.058;2023-05-02T08:44:32;97542.56;;;14.16;86.85
49515;BME280;35415;47.870;16.058;2023-05-02T08:47:01;97551.47;;;14.17;86.16
49515;BME280;35415;47.870;16.058;2023-05-02T08:49:30;97543.38;;;14.17;85.95
49515;BME280;35415;47.870;16.058;2023-05-02T08:51:58;97547.41;;;14.19;86.18
49515;BME280;35415;47.870;16.058;2023-05-02T08:54:26;97546.31;;;14.20;86.54
49515;BME280;35415;47.870;16.058;2023-05-02T08:56:55;97543.31;;;14.22;85.90
49515;BME280;35415;47.870;16.058;2023-05-02T08:59:24;97540.59;;;14.22;85.29
49515;BME280;35415;47.870;16.058;2023-05-02T09:01:54;97530.66;;;14.17;85.69
49515;BME280;35415;47.870;16.058;2023-05-02T09:04:29;97537.31;;;14.25;86.12
49515;BME280;35415;47.870;16.058;2023-05-02T09:06:57;97545.72;;;14.23;86.04
49515;BME280;35415;47.870;16.058;2023-05-02T09:09:24;97547.59;;;14.28;85.58
49515;BME280;35415;47.870;16.058;2023-05-02T09:11:53;97549.75;;;14.31;85.88
49515;BME280;35415;47.870;16.058;2023-05-02T09:14:20;97535.94;;;14.27;85.88
49515;BME280;35415;47.870;16.058;2023-05-02T09:16:47;97544.56;;;14.34;86.28
49515;BME280;35415;47.870;16.058;2023-05-02T09:19:23;97536.16;;;14.36;85.97
49515;BME280;35415;47.870;16.058;2023-05-02T09:21:58;97545.06;;;14.36;86.48
49515;BME280;35415;47.870;16.058;2023-05-02T09:24:25;97551.25;;;14.42;85.28
49515;BME280;35415;47.870;16.058;2023-05-02T09:26:57;97531.31;;;14.33;85.79
49515;BME280;35415;47.870;16.058;2023-05-02T09:29:25;97561.72;;;14.54;85.07
49515;BME280;35415;47.870;16.058;2023-05-02T09:31:53;97568.22;;;14.53;83.31
49515;BME280;35415;47.870;16.058;2023-05-02T09:34:20;97572.03;;;14.52;82.34
49515;BME280;35415;47.870;16.058;2023-05-02T09:36:48;97567.47;;;14.47;81.48
49515;BME280;35415;47.870;16.058;2023-05-02T09:39:22;97583.63;;;14.57;82.04
49515;BME280;35415;47.870;16.058;2023-05-02T09:41:49;97571.81;;;14.48;80.22
49515;BME280;35415;47.870;16.058;2023-05-02T09:44:17;97579.28;;;14.56;80.76
49515;BME280;35415;47.870;16.058;2023-05-02T09:46:46;97583.91;;;14.56;80.40
49515;BME280;35415;47.870;16.058;2023-05-02T09:49:13;97578.19;;;14.57;79.28
49515;BME280;35415;47.870;16.058;2023-05-02T09:51:43;97573.13;;;14.51;79.35
49515;BME280;35415;47.870;16.058;2023-05-02T09:54:11;97593.88;;;14.60;81.23
49515;BME280;35415;47.870;16.058;2023-05-02T09:56:52;97590.13;;;14.56;82.55
49515;BME280;35415;47.870;16.058;2023-05-02T09:59:21;97588.78;;;14.54;84.16
49515;BME280;35415;47.870;16.058;2023-05-02T10:01:54;97592.59;;;14.53;83.54
49515;BME280;35415;47.870;16.058;2023-05-02T10:04:23;97592.13;;;14.46;82.75
49515;BME280;35415;47.870;16.058;2023-05-02T10:06:52;97588.91;;;14.38;82.82
49515;BME280;35415;47.870;16.058;2023-05-02T10:09:20;97590.84;;;14.33;83.74
49515;BME280;35415;47.870;16.058;2023-05-02T10:11:52;97609.75;;;14.38;85.50
49515;BME280;35415;47.870;16.058;2023-05-02T10:14:20;97615.44;;;14.36;86.14
49515;BME280;35415;47.870;16.058;2023-05-02T10:16:54;97616.53;;;14.35;86.60
49515;BME280;35415;47.870;16.058;2023-05-02T10:19:28;97610.38;;;14.30;86.75
49515;BME280;35415;47.870;16.058;2023-05-02T10:21:56;97613.34;;;14.28;86.75
49515;BME280;35415;47.870;16.058;2023-05-02T10:24:25;97615.50;;;14.26;85.92
49515;BME280;35415;47.870;16.058;2023-05-02T10:26:54;97607.66;;;14.30;88.89
49515;BME280;35415;47.870;16.058;2023-05-02T10:29:21;97586.06;;;14.20;85.46
49515;BME280;35415;47.870;16.058;2023-05-02T10:31:49;97609.22;;;14.36;86.06
49515;BME280;35415;47.870;16.058;2023-05-02T10:34:17;97603.81;;;14.36;85.67
49515;BME280;35415;47.870;16.058;2023-05-02T10:36:45;97584.13;;;14.30;88.21
49515;BME280;35415;47.870;16.058;2023-05-02T10:39:12;97591.31;;;14.40;87.48
49515;BME280;35415;47.870;16.058;2023-05-02T10:41:40;97587.53;;;14.46;87.14
49515;BME280;35415;47.870;16.058;2023-05-02T10:44:09;97569.09;;;14.43;87.99
49515;BME280;35415;47.870;16.058;2023-05-02T10:46:38;97579.63;;;14.50;85.60
49515;BME280;35415;47.870;16.058;2023-05-02T10:49:07;97591.13;;;14.65;83.66
49515;BME280;35415;47.870;16.058;2023-05-02T10:51:37;97587.50;;;14.75;83.82
49515;BME280;35415;47.870;16.058;2023-05-02T10:54:22;97593.91;;;14.84;82.72
49515;BME280;35415;47.870;16.058;2023-05-02T10:57:06;97599.50;;;14.93;82.40
49515;BME280;35415;47.870;16.058;2023-05-02T10:59:36;97589.66;;;15.02;80.51
49515;BME280;35415;47.870;16.058;2023-05-02T11:02:03;97591.72;;;15.10;79.77
49515;BME280;35415;47.870;16.058;2023-05-02T11:04:59;97593.22;;;15.21;79.48
49515;BME280;35415;47.870;16.058;2023-05-02T11:07:27;97558.94;;;15.12;78.82
49515;BME280;35415;47.870;16.058;2023-05-02T11:10:26;97580.81;;;15.39;77.64
49515;BME280;35415;47.870;16.058;2023-05-02T11:12:55;97579.31;;;15.52;76.95
49515;BME280;35415;47.870;16.058;2023-05-02T11:15:55;97590.06;;;15.62;76.98
49515;BME280;35415;47.870;16.058;2023-05-02T11:18:23;97564.81;;;15.61;75.70
49515;BME280;35415;47.870;16.058;2023-05-02T11:20:50;97584.03;;;15.84;73.27
49515;BME280;35415;47.870;16.058;2023-05-02T11:23:21;97586.59;;;15.94;72.50
49515;BME280;35415;47.870;16.058;2023-05-02T11:25:52;97581.09;;;15.99;74.10
49515;BME280;35415;47.870;16.058;2023-05-02T11:28:42;97580.06;;;16.14;73.69
49515;BME280;35415;47.870;16.058;2023-05-02T11:34:39;97594.72;;;16.32;70.24
49515;BME280;35415;47.870;16.058;2023-05-02T11:37:11;97582.16;;;16.36;69.28
49515;BME280;35415;47.870;16.058;2023-05-02T11:39:38;97579.94;;;16.38;68.84
49515;BME280;35415;47.870;16.058;2023-05-02T11:42:05;97575.53;;;16.42;69.59
49515;BME280;35415;47.870;16.058;2023-05-02T11:44:32;97573.56;;;16.47;68.60
49515;BME280;35415;47.870;16.058;2023-05-02T11:47:01;97580.50;;;16.53;69.93
49515;BME280;35415;47.870;16.058;2023-05-02T11:49:30;97578.28;;;16.55;68.74
49515;BME280;35415;47.870;16.058;2023-05-02T11:51:58;97570.44;;;16.54;68.47
49515;BME280;35415;47.870;16.058;2023-05-02T11:54:25;97577.88;;;16.62;67.05
49515;BME280;35415;47.870;16.058;2023-05-02T11:56:52;97573.56;;;16.61;66.20
49515;BME280;35415;47.870;16.058;2023-05-02T11:59:19;97587.81;;;16.72;65.60
49515;BME280;35415;47.870;16.058;2023-05-02T12:01:51;97579.66;;;16.72;65.74
49515;BME280;35415;47.870;16.058;2023-05-02T12:04:18;97588.09;;;16.70;65.48
49515;BME280;35415;47.870;16.058;2023-05-02T12:06:56;97578.19;;;16.61;64.90
49515;BME280;35415;47.870;16.058;2023-05-02T12:09:23;97573.78;;;16.65;64.43
49515;BME280;35415;47.870;16.058;2023-05-02T12:11:51;97590.53;;;16.72;64.77
49515;BME280;35415;47.870;16.058;2023-05-02T12:14:26;97587.66;;;16.63;64.43
49515;BME280;35415;47.870;16.058;2023-05-02T12:16:54;97577.75;;;16.72;63.23
49515;BME280;35415;47.870;16.058;2023-05-02T12:19:21;97574.81;;;16.69;63.83
49515;BME280;35415;47.870;16.058;2023-05-02T12:21:48;97584.47;;;16.75;61.03
49515;BME280;35415;47.870;16.058;2023-05-02T12:24:17;97588.00;;;16.75;61.65
49515;BME280;35415;47.870;16.058;2023-05-02T12:26:44;97590.66;;;16.80;62.11
49515;BME280;35415;47.870;16.058;2023-05-02T12:29:11;97587.41;;;16.78;61.51
49515;BME280;35415;47.870;16.058;2023-05-02T12:31:38;97579.66;;;16.72;61.91
49515;BME280;35415;47.870;16.058;2023-05-02T12:34:05;97595.78;;;16.82;61.63
49515;BME280;35415;47.870;16.058;2023-05-02T12:36:42;97582.66;;;16.70;62.05
49515;BME280;35415;47.870;16.058;2023-05-02T12:39:09;97603.69;;;16.78;61.03
49515;BME280;35415;47.870;16.058;2023-05-02T12:41:38;97594.25;;;16.76;61.33
49515;BME280;35415;47.870;16.058;2023-05-02T12:44:08;97599.56;;;16.67;61.14
49515;BME280;35415;47.870;16.058;2023-05-02T12:46:36;97603.13;;;16.63;61.31
49515;BME280;35415;47.870;16.058;2023-05-02T12:49:04;97590.66;;;16.48;62.38
49515;BME280;35415;47.870;16.058;2023-05-02T12:51:37;97600.91;;;16.51;61.97
49515;BME280;35415;47.870;16.058;2023-05-02T12:54:04;97604.22;;;16.48;61.99
49515;BME280;35415;47.870;16.058;2023-05-02T12:56:40;97611.63;;;16.42;62.33
49515;BME280;35415;47.870;16.058;2023-05-02T12:59:11;97580.59;;;16.16;62.32
49515;BME280;35415;47.870;16.058;2023-05-02T13:01:51;97605.34;;;16.28;62.15
49515;BME280;35415;47.870;16.058;2023-05-02T13:04:18;97594.88;;;16.21;62.26
49515;BME280;35415;47.870;16.058;2023-05-02T13:06:45;97595.75;;;16.17;62.38